Time;durP1;ratioP1;P1;durP2;ratioP2;P2;SDS_P1;SDS_P2;PMS_P1;PMS_P2;Temp;Humidity;BMP_temperature;BMP_pressure;BME280_temperature;BME280_humidity;BME280_pressure;Samples;Min_cycle;Max_cycle;Signal;HPM_P1;HPM_P2
2023/05/09 00:02:13;;;;;;;6.40;5.90;;;25.90;42.50;;;;;;4974820;28;20428;-79
2023/05/09 00:04:41;;;;;;;6.20;5.70;;;25.90;42.50;;;;;;4968202;28;20440;-79
2023/05/09 00:07:10;;;;;;;6.10;5.60;;;25.80;42.50;;;;;;4972121;28;20995;-79
2023/05/09 00:09:40;;;;;;;6.70;6.10;;;25.80;42.60;;;;;;4976502;28;20421;-79
2023/05/09 00:12:11;;;;;;;9.13;5.90;;;25.80;42.60;;;;;;4977084;28;20566;-79
2023/05/09 00:14:39;;;;;;;6.27;5.40;;;25.80;42.70;;;;;;4980290;28;20426;-79
2023/05/09 00:17:08;;;;;;;6.37;5.47;;;25.70;42.70;;;;;;4980323;28;20963;-79
2023/05/09 00:19:36;;;;;;;6.67;6.10;;;25.70;42.80;;;;;;4977838;28;20545;-79
2023/05/09 00:22:05;;;;;;;10.27;6.30;;;25.70;42.80;;;;;;4975418;28;20535;-79
2023/05/09 00:24:33;;;;;;;25.10;14.33;;;25.70;42.90;;;;;;4979481;28;20431;-79
2023/05/09 00:27:02;;;;;;;18.30;14.90;;;25.60;43.00;;;;;;4980554;28;20509;-79
2023/05/09 00:29:31;;;;;;;16.60;13.67;;;25.60;43.00;;;;;;4979764;28;20446;-79
2023/05/09 00:31:59;;;;;;;23.13;16.60;;;25.60;43.00;;;;;;4967544;28;20546;-79
2023/05/09 00:34:28;;;;;;;22.70;17.23;;;25.50;43.10;;;;;;4976957;28;20416;-79
2023/05/09 00:36:56;;;;;;;25.53;17.50;;;25.50;43.20;;;;;;4979842;28;20507;-79
2023/05/09 00:39:24;;;;;;;24.20;16.93;;;25.50;43.40;;;;;;4979409;28;20446;-79
2023/05/09 00:41:52;;;;;;;23.37;19.70;;;25.50;43.20;;;;;;4970817;28;20443;-79
2023/05/09 00:44:21;;;;;;;24.50;17.53;;;25.50;43.30;;;;;;4976851;28;20445;-79
2023/05/09 00:46:50;;;;;;;26.40;20.33;;;25.40;43.20;;;;;;4979715;28;20450;-79
2023/05/09 00:49:18;;;;;;;23.90;18.87;;;25.40;43.40;;;;;;4971880;28;20429;-79
2023/05/09 00:51:46;;;;;;;24.47;18.33;;;25.40;43.50;;;;;;4979722;28;20443;-79
2023/05/09 00:54:14;;;;;;;25.40;20.30;;;25.40;43.40;;;;;;4979519;28;20479;-79
2023/05/09 00:56:42;;;;;;;27.10;20.97;;;25.40;43.50;;;;;;4979647;28;20421;-79
2023/05/09 00:59:11;;;;;;;26.17;20.73;;;25.30;43.40;;;;;;4971460;28;20512;-79
2023/05/09 01:01:40;;;;;;;26.00;20.87;;;25.30;43.60;;;;;;4979710;28;20426;-79
2023/05/09 01:04:08;;;;;;;26.83;20.87;;;25.30;43.60;;;;;;4981089;28;20447;-79
2023/05/09 01:06:42;;;;;;;27.53;20.40;;;25.30;43.70;;;;;;4978987;28;20480;-79
2023/05/09 01:09:14;;;;;;;27.03;20.80;;;25.30;43.70;;;;;;4978830;28;20545;-79
2023/05/09 01:11:45;;;;;;;28.30;21.47;;;25.20;43.70;;;;;;4979083;28;20450;-79
2023/05/09 01:14:16;;;;;;;27.50;22.07;;;25.20;43.80;;;;;;4979150;28;20424;-79
2023/05/09 01:16:47;;;;;;;29.17;20.37;;;25.20;43.80;;;;;;4979370;28;20454;-79
2023/05/09 01:19:33;;;;;;;35.47;20.90;;;25.20;43.70;;;;;;4978450;28;20454;-78
2023/05/09 01:22:01;;;;;;;26.77;20.97;;;25.20;43.90;;;;;;4970654;28;20489;-79
2023/05/09 01:25:10;;;;;;;27.40;20.07;;;25.10;43.80;;;;;;4977464;28;20450;-79
2023/05/09 01:27:44;;;;;;;25.33;20.20;;;25.20;44.00;;;;;;4969334;28;20449;-79
2023/05/09 01:30:13;;;;;;;23.73;18.90;;;25.10;44.00;;;;;;4979628;28;20541;-79
2023/05/09 01:32:42;;;;;;;24.93;19.90;;;25.10;44.60;;;;;;4978695;28;20553;-79
2023/05/09 01:35:12;;;;;;;26.93;20.63;;;25.10;44.10;;;;;;4978880;28;20446;-79
2023/05/09 01:37:42;;;;;;;25.57;20.43;;;25.10;44.00;;;;;;4978780;28;20479;-79
2023/05/09 01:40:13;;;;;;;24.10;18.43;;;25.10;44.10;;;;;;4973234;28;20425;-79
2023/05/09 01:42:42;;;;;;;26.43;19.43;;;25.00;44.10;;;;;;4967885;28;20475;-78
2023/05/09 01:45:12;;;;;;;24.20;19.00;;;25.00;44.10;;;;;;4977654;28;20457;-78
2023/05/09 01:47:41;;;;;;;23.17;18.60;;;25.00;44.20;;;;;;4977384;28;20444;-79
2023/05/09 01:50:10;;;;;;;26.57;20.27;;;25.00;44.10;;;;;;4977140;28;20424;-79
2023/05/09 01:52:38;;;;;;;25.87;19.33;;;25.00;44.20;;;;;;4975778;28;20444;-78
2023/05/09 01:55:07;;;;;;;23.50;19.00;;;25.00;44.30;;;;;;4971176;28;20458;-80
2023/05/09 01:57:35;;;;;;;28.60;19.40;;;25.00;44.30;;;;;;4977389;28;20417;-78
2023/05/09 02:00:06;;;;;;;23.23;18.20;;;25.00;44.40;;;;;;4977354;28;20421;-78
2023/05/09 02:02:36;;;;;;;24.70;18.80;;;24.90;44.30;;;;;;4977467;28;20497;-78
2023/05/09 02:05:04;;;;;;;21.60;18.10;;;24.90;44.30;;;;;;4975763;28;20457;-78
2023/05/09 02:07:33;;;;;;;22.33;18.57;;;24.90;44.40;;;;;;4977327;28;20441;-79
2023/05/09 02:10:01;;;;;;;24.43;18.70;;;24.90;44.50;;;;;;4977395;28;20518;-79
2023/05/09 02:12:29;;;;;;;21.40;17.17;;;24.80;44.40;;;;;;4969400;28;20449;-78
2023/05/09 02:14:57;;;;;;;22.87;17.63;;;24.80;44.50;;;;;;4977215;28;20445;-78
2023/05/09 02:17:28;;;;;;;20.27;16.67;;;24.80;45.10;;;;;;4977852;28;20442;-78
2023/05/09 02:19:57;;;;;;;22.93;16.10;;;24.80;44.60;;;;;;4973303;28;20474;-78
2023/05/09 02:22:25;;;;;;;20.20;15.70;;;24.80;44.70;;;;;;4972949;28;20470;-78
2023/05/09 02:24:53;;;;;;;18.67;16.30;;;24.80;44.60;;;;;;4968490;28;20458;-78
2023/05/09 02:27:21;;;;;;;19.37;15.57;;;24.70;44.70;;;;;;4977061;28;20478;-79
2023/05/09 02:29:50;;;;;;;18.97;16.13;;;24.70;44.70;;;;;;4978277;28;20431;-79
2023/05/09 02:32:21;;;;;;;21.07;15.67;;;24.70;44.70;;;;;;4977850;28;20470;-80
2023/05/09 02:34:50;;;;;;;20.43;15.97;;;24.70;44.70;;;;;;4977300;28;20465;-78
2023/05/09 02:37:21;;;;;;;19.33;15.57;;;24.70;44.80;;;;;;4972467;28;20446;-78
2023/05/09 02:39:50;;;;;;;18.90;15.33;;;24.60;44.70;;;;;;4971233;28;20439;-78
2023/05/09 02:42:20;;;;;;;20.23;15.23;;;24.60;44.90;;;;;;4975886;28;20474;-77
2023/05/09 02:44:48;;;;;;;18.13;14.77;;;24.60;44.80;;;;;;4975969;28;20457;-78
2023/05/09 02:47:16;;;;;;;17.47;14.20;;;24.60;44.80;;;;;;4975323;28;20470;-79
2023/05/09 02:49:44;;;;;;;17.73;14.50;;;24.60;44.90;;;;;;4967861;28;20422;-78
2023/05/09 02:52:12;;;;;;;16.47;14.20;;;24.60;44.90;;;;;;4975190;28;20466;-78
2023/05/09 02:54:42;;;;;;;16.17;13.43;;;24.60;45.00;;;;;;4974299;28;20417;-77
2023/05/09 02:57:10;;;;;;;17.17;14.13;;;24.50;45.00;;;;;;4968304;28;20496;-77
2023/05/09 02:59:37;;;;;;;16.90;13.90;;;24.50;45.00;;;;;;4974673;28;20438;-78
2023/05/09 03:02:05;;;;;;;16.50;13.47;;;24.50;45.00;;;;;;4975175;28;20458;-78
2023/05/09 03:04:33;;;;;;;16.53;13.30;;;24.50;45.10;;;;;;4974941;28;20457;-78
2023/05/09 03:07:01;;;;;;;13.57;12.10;;;24.40;45.10;;;;;;4975565;28;20465;-77
2023/05/09 03:09:29;;;;;;;15.60;12.50;;;24.40;45.10;;;;;;4975556;28;20487;-77
2023/05/09 03:11:58;;;;;;;19.20;12.60;;;24.30;45.20;;;;;;4975345;28;20467;-77
2023/05/09 03:14:26;;;;;;;15.50;12.37;;;24.30;45.20;;;;;;4975285;28;20529;-77
2023/05/09 03:16:54;;;;;;;14.20;11.77;;;24.30;45.20;;;;;;4972494;28;20473;-77
2023/05/09 03:19:22;;;;;;;13.07;11.40;;;24.30;45.10;;;;;;4963724;28;20458;-77
2023/05/09 03:21:50;;;;;;;14.27;11.70;;;24.30;45.20;;;;;;4965978;28;20422;-78
2023/05/09 03:24:18;;;;;;;18.30;11.40;;;24.30;45.20;;;;;;4975311;28;20442;-78
2023/05/09 03:26:46;;;;;;;15.20;12.50;;;24.30;45.30;;;;;;4973812;28;20457;-77
2023/05/09 03:29:16;;;;;;;13.80;11.70;;;24.30;45.40;;;;;;4966486;28;20462;-77
2023/05/09 03:31:45;;;;;;;13.27;11.33;;;24.30;45.40;;;;;;4975045;28;20446;-78
2023/05/09 03:34:13;;;;;;;11.53;10.30;;;24.20;45.30;;;;;;4961714;28;20425;-77
2023/05/09 03:36:42;;;;;;;12.80;11.03;;;24.20;45.40;;;;;;4973631;28;20458;-77
2023/05/09 03:39:10;;;;;;;12.03;10.07;;;24.10;45.30;;;;;;4974434;28;20948;-78
2023/05/09 03:41:38;;;;;;;12.07;10.73;;;24.20;45.40;;;;;;4975184;28;20450;-78
2023/05/09 03:44:07;;;;;;;13.30;10.63;;;24.10;45.30;;;;;;4960840;28;20409;-78
2023/05/09 03:46:36;;;;;;;10.50;9.50;;;24.10;45.30;;;;;;4973924;28;20454;-78
2023/05/09 03:49:05;;;;;;;12.30;10.13;;;24.10;45.40;;;;;;4975130;28;20532;-77
2023/05/09 03:51:32;;;;;;;11.20;10.00;;;24.10;45.40;;;;;;4979096;28;20452;-78
2023/05/09 03:54:00;;;;;;;11.40;10.17;;;24.10;45.50;;;;;;4977538;28;20458;-78
2023/05/09 03:56:29;;;;;;;11.63;10.07;;;24.10;45.50;;;;;;4966335;28;20449;-77
2023/05/09 03:58:56;;;;;;;11.37;10.10;;;24.10;45.50;;;;;;4978621;28;20430;-77
2023/05/09 04:01:24;;;;;;;10.70;9.60;;;24.10;45.60;;;;;;4978632;28;20442;-78
2023/05/09 04:03:56;;;;;;;9.87;8.83;;;24.10;45.60;;;;;;4978598;28;20477;-78
2023/05/09 04:06:24;;;;;;;9.73;8.73;;;24.10;45.60;;;;;;4978387;28;20453;-78
2023/05/09 04:08:52;;;;;;;10.30;9.20;;;24.00;45.60;;;;;;4971480;28;20498;-78
2023/05/09 04:11:20;;;;;;;13.43;10.00;;;24.10;45.50;;;;;;4978697;28;20456;-78
2023/05/09 04:13:49;;;;;;;8.83;8.00;;;24.10;45.60;;;;;;4973095;28;20481;-78
2023/05/09 04:16:17;;;;;;;9.40;8.40;;;24.00;45.60;;;;;;4979042;28;20442;-79
2023/05/09 04:18:45;;;;;;;10.10;8.00;;;24.00;45.60;;;;;;4969579;28;20467;-78
2023/05/09 04:21:15;;;;;;;10.63;8.90;;;24.00;45.30;;;;;;4977633;28;20454;-78
2023/05/09 04:23:43;;;;;;;9.97;8.90;;;24.00;45.50;;;;;;4977488;28;20469;-78
2023/05/09 04:26:12;;;;;;;10.93;8.70;;;24.00;45.70;;;;;;4978426;28;20446;-78
2023/05/09 04:28:40;;;;;;;9.33;8.37;;;24.10;45.40;;;;;;4977469;28;20480;-77
2023/05/09 04:31:11;;;;;;;8.80;7.90;;;24.10;46.20;;;;;;4978634;28;20442;-78
2023/05/09 04:33:39;;;;;;;8.67;7.77;;;24.10;45.50;;;;;;4978311;28;20520;-78
2023/05/09 04:36:08;;;;;;;9.33;8.30;;;24.10;45.50;;;;;;4978577;28;20454;-78
2023/05/09 04:38:37;;;;;;;9.80;8.30;;;24.10;45.50;;;;;;4977920;28;20446;-78
2023/05/09 04:41:06;;;;;;;8.33;7.53;;;24.10;45.40;;;;;;4970067;28;20450;-79
2023/05/09 04:43:34;;;;;;;8.73;7.83;;;24.10;45.60;;;;;;4978384;28;20547;-78
2023/05/09 04:46:02;;;;;;;8.63;7.80;;;24.10;45.60;;;;;;4977994;28;20485;-78
2023/05/09 04:48:30;;;;;;;8.30;7.53;;;24.10;45.50;;;;;;4977626;28;20476;-78
2023/05/09 04:50:58;;;;;;;8.30;7.50;;;24.10;45.40;;;;;;4977942;28;20454;-78
2023/05/09 04:53:27;;;;;;;8.53;7.70;;;24.10;45.50;;;;;;4977397;28;20497;-78
2023/05/09 04:55:56;;;;;;;9.77;6.90;;;24.10;45.40;;;;;;4976145;28;20518;-78
2023/05/09 04:58:25;;;;;;;7.70;6.90;;;24.10;45.60;;;;;;4978333;28;20438;-78
2023/05/09 05:00:53;;;;;;;10.77;7.10;;;24.10;45.40;;;;;;4977758;28;20457;-78
2023/05/09 05:03:21;;;;;;;7.57;6.90;;;24.10;45.40;;;;;;4977691;28;20469;-78
2023/05/09 05:05:49;;;;;;;7.57;6.87;;;24.10;45.50;;;;;;4976136;28;20426;-78
2023/05/09 05:08:18;;;;;;;8.47;7.47;;;24.10;45.30;;;;;;4970453;28;20536;-78
2023/05/09 05:10:46;;;;;;;8.23;7.33;;;24.10;45.40;;;;;;4967563;28;20443;-78
2023/05/09 05:13:15;;;;;;;10.67;6.90;;;24.10;45.40;;;;;;4969326;28;20473;-78
2023/05/09 05:15:44;;;;;;;7.13;6.43;;;24.10;45.30;;;;;;4977256;28;20450;-78
2023/05/09 05:18:12;;;;;;;7.90;7.10;;;24.10;45.40;;;;;;4978397;28;20450;-78
2023/05/09 05:20:40;;;;;;;8.73;6.60;;;24.20;45.40;;;;;;4972701;28;20537;-78
2023/05/09 05:23:08;;;;;;;7.37;6.60;;;24.20;45.40;;;;;;4978278;28;20470;-78
2023/05/09 05:25:36;;;;;;;7.30;6.60;;;24.30;45.40;;;;;;4978383;28;20453;-78
2023/05/09 05:28:04;;;;;;;6.87;6.13;;;24.30;45.30;;;;;;4977971;28;20470;-78
2023/05/09 05:30:34;;;;;;;6.60;6.00;;;24.30;45.20;;;;;;4970372;28;20450;-78
2023/05/09 05:33:02;;;;;;;8.30;6.90;;;24.40;45.40;;;;;;4969784;28;20466;-78
2023/05/09 05:35:30;;;;;;;7.23;6.53;;;24.40;45.20;;;;;;4972732;28;20465;-78
2023/05/09 05:37:58;;;;;;;8.93;6.67;;;24.40;45.20;;;;;;4978160;28;20450;-79
2023/05/09 05:40:25;;;;;;;7.20;6.50;;;24.50;45.20;;;;;;4978221;28;20417;-78
2023/05/09 05:42:54;;;;;;;6.50;5.90;;;24.40;45.10;;;;;;4977462;28;20450;-78
2023/05/09 05:45:22;;;;;;;6.90;5.43;;;24.50;45.00;;;;;;4969522;28;20457;-78
2023/05/09 05:47:51;;;;;;;6.00;5.60;;;24.60;45.00;;;;;;4976706;28;20453;-78
2023/05/09 05:50:20;;;;;;;6.30;5.80;;;24.60;45.10;;;;;;4971450;28;20438;-78
2023/05/09 05:52:48;;;;;;;6.63;6.03;;;24.60;44.90;;;;;;4977559;28;20441;-78
2023/05/09 05:55:16;;;;;;;6.90;6.13;;;24.70;44.80;;;;;;4971199;28;20454;-79
2023/05/09 05:57:45;;;;;;;6.10;5.60;;;24.80;45.00;;;;;;4978493;28;20446;-79
2023/05/09 06:00:15;;;;;;;7.03;6.43;;;24.80;44.90;;;;;;4976929;28;20505;-79
2023/05/09 06:02:43;;;;;;;6.37;5.77;;;24.80;44.70;;;;;;4978354;28;20470;-78
2023/05/09 06:05:13;;;;;;;5.93;5.37;;;24.90;44.70;;;;;;4971249;28;20779;-79
2023/05/09 06:07:43;;;;;;;6.10;5.60;;;24.90;44.70;;;;;;4977878;28;20448;-78
2023/05/09 06:10:11;;;;;;;6.43;5.83;;;24.90;44.60;;;;;;4973101;28;20485;-79
2023/05/09 06:12:39;;;;;;;5.93;5.43;;;24.90;44.70;;;;;;4976944;28;20441;-79
2023/05/09 06:15:07;;;;;;;5.20;4.90;;;24.90;45.20;;;;;;4975607;28;20481;-79
2023/05/09 06:17:35;;;;;;;5.80;5.30;;;25.00;44.70;;;;;;4975640;28;20452;-79
2023/05/09 06:20:04;;;;;;;5.23;4.83;;;25.00;44.40;;;;;;4967368;28;20421;-79
2023/05/09 06:22:34;;;;;;;6.03;5.53;;;25.00;44.60;;;;;;4976042;28;20484;-79
2023/05/09 06:25:02;;;;;;;6.10;5.60;;;25.00;44.40;;;;;;4966744;28;20428;-79
2023/05/09 06:27:30;;;;;;;5.57;5.07;;;25.00;44.60;;;;;;4975963;28;20456;-79
2023/05/09 06:29:58;;;;;;;5.43;5.03;;;25.10;44.60;;;;;;4976789;28;20470;-79
2023/05/09 06:32:29;;;;;;;5.80;5.20;;;25.10;44.50;;;;;;4977240;28;20470;-78
2023/05/09 06:34:57;;;;;;;5.90;5.30;;;25.10;44.80;;;;;;4968646;28;20455;-79
2023/05/09 06:37:25;;;;;;;5.27;4.87;;;25.20;44.40;;;;;;4974009;28;20456;-79
2023/05/09 06:39:55;;;;;;;5.33;4.93;;;25.20;44.40;;;;;;4976759;28;20445;-79
2023/05/09 06:42:23;;;;;;;5.30;4.90;;;25.20;44.30;;;;;;4971633;28;20479;-78
2023/05/09 06:44:51;;;;;;;6.33;5.73;;;25.20;44.20;;;;;;4973846;28;20460;-79
2023/05/09 06:47:18;;;;;;;5.23;4.83;;;25.30;44.10;;;;;;4977116;28;20533;-78
2023/05/09 06:49:47;;;;;;;5.53;4.97;;;25.20;44.20;;;;;;4976233;28;20448;-79
2023/05/09 06:52:15;;;;;;;4.87;4.53;;;25.30;44.20;;;;;;4974079;28;20470;-79
2023/05/09 06:54:43;;;;;;;5.50;5.10;;;25.30;44.30;;;;;;4961658;28;20425;-79
2023/05/09 06:57:13;;;;;;;5.10;4.80;;;25.30;44.20;;;;;;4974972;28;20450;-79
2023/05/09 06:59:41;;;;;;;4.77;4.37;;;25.30;44.20;;;;;;4976379;28;20453;-79
2023/05/09 07:02:09;;;;;;;11.50;5.03;;;25.30;44.10;;;;;;4976548;28;20455;-78
2023/05/09 07:04:37;;;;;;;5.53;4.87;;;25.40;44.10;;;;;;4970273;28;20461;-79
2023/05/09 07:07:05;;;;;;;5.30;4.80;;;25.40;44.00;;;;;;4975210;28;20951;-78
2023/05/09 07:09:33;;;;;;;5.43;5.00;;;25.50;44.20;;;;;;4976991;28;20467;-79
2023/05/09 07:12:01;;;;;;;4.80;4.50;;;25.60;44.00;;;;;;4967741;28;20474;-79
2023/05/09 07:14:30;;;;;;;5.40;4.90;;;25.60;43.80;;;;;;4976765;28;20431;-79
2023/05/09 07:16:58;;;;;;;5.20;4.70;;;25.70;43.90;;;;;;4975425;28;20458;-78
2023/05/09 07:19:45;;;;;;;4.90;4.60;;;25.80;43.80;;;;;;4961940;28;20442;-78
2023/05/09 07:22:13;;;;;;;4.70;4.40;;;25.80;43.70;;;;;;4973957;28;20439;-77
2023/05/09 07:24:43;;;;;;;5.00;4.70;;;25.90;43.70;;;;;;4974196;28;20524;-78
2023/05/09 07:27:11;;;;;;;5.43;4.97;;;26.00;43.60;;;;;;4979228;28;20437;-79
2023/05/09 07:29:40;;;;;;;5.77;4.87;;;26.00;43.50;;;;;;4960207;28;20467;-80
2023/05/09 07:32:09;;;;;;;7.60;6.60;;;26.10;43.50;;;;;;4975983;28;20462;-79
2023/05/09 07:34:37;;;;;;;7.67;6.77;;;25.20;42.80;;;;;;4976667;28;20420;-80
2023/05/09 07:37:05;;;;;;;10.67;8.60;;;24.40;44.90;;;;;;4975693;28;20420;-80
2023/05/09 07:39:33;;;;;;;9.10;8.20;;;23.80;44.00;;;;;;4977833;28;20409;-78
2023/05/09 07:42:02;;;;;;;12.80;8.27;;;22.60;46.50;;;;;;4976787;28;20496;-79
2023/05/09 07:44:30;;;;;;;10.27;8.60;;;22.40;46.90;;;;;;4972746;28;20417;-78
2023/05/09 07:47:00;;;;;;;13.97;9.40;;;22.20;47.20;;;;;;4966572;28;20446;-78
2023/05/09 07:49:27;;;;;;;11.77;9.53;;;21.40;48.10;;;;;;4969503;28;20486;-78
2023/05/09 07:51:55;;;;;;;14.43;8.93;;;21.20;50.00;;;;;;4972317;28;20470;-77
2023/05/09 07:54:24;;;;;;;14.80;9.00;;;21.20;50.50;;;;;;4970412;28;20522;-78
2023/05/09 07:56:52;;;;;;;14.20;9.73;;;21.50;50.00;;;;;;4959588;28;20456;-77
2023/05/09 07:59:20;;;;;;;13.67;9.60;;;21.40;50.30;;;;;;4970406;28;20442;-77
2023/05/09 08:01:48;;;;;;;13.93;8.83;;;21.60;51.00;;;;;;4968824;28;20450;-77
2023/05/09 08:04:17;;;;;;;16.17;9.10;;;21.60;50.80;;;;;;4972692;28;20448;-78
2023/05/09 08:06:45;;;;;;;15.20;9.10;;;21.40;51.10;;;;;;4972855;28;20451;-77
2023/05/09 08:09:13;;;;;;;13.80;10.50;;;21.40;52.20;;;;;;4972444;28;20460;-77
2023/05/09 08:11:41;;;;;;;11.90;10.10;;;21.20;52.00;;;;;;4972291;28;20529;-77
2023/05/09 08:14:09;;;;;;;15.10;9.90;;;21.40;52.70;;;;;;4971449;28;20446;-77
2023/05/09 08:16:37;;;;;;;14.10;10.60;;;21.50;52.50;;;;;;4965740;28;20451;-77
2023/05/09 08:19:05;;;;;;;16.00;10.73;;;21.50;52.40;;;;;;4971014;28;20450;-77
2023/05/09 08:21:35;;;;;;;13.73;10.80;;;21.20;53.60;;;;;;4967468;28;20449;-77
2023/05/09 08:24:04;;;;;;;19.33;10.20;;;21.50;52.80;;;;;;4972813;28;20454;-77
2023/05/09 08:26:32;;;;;;;14.40;10.73;;;21.30;53.50;;;;;;4973080;28;20465;-77
2023/05/09 08:29:01;;;;;;;14.73;11.20;;;21.10;53.80;;;;;;4964101;28;20522;-77
2023/05/09 08:31:29;;;;;;;15.60;11.80;;;20.90;55.20;;;;;;4965290;28;20470;-78
2023/05/09 08:33:57;;;;;;;15.13;10.50;;;21.20;55.00;;;;;;4966676;28;20459;-78
2023/05/09 08:36:25;;;;;;;16.83;11.07;;;21.80;54.30;;;;;;4967559;28;20547;-77
2023/05/09 08:38:54;;;;;;;12.40;10.50;;;22.00;53.40;;;;;;4974164;28;20565;-81
2023/05/09 08:41:25;;;;;;;13.53;10.70;;;22.40;53.40;;;;;;4977827;28;20427;-80
2023/05/09 08:43:53;;;;;;;17.60;12.20;;;23.10;52.30;;;;;;4979622;28;20455;-80
2023/05/09 08:46:24;;;;;;;16.83;11.90;;;23.20;51.60;;;;;;4973620;28;20452;-78
2023/05/09 08:48:53;;;;;;;11.03;9.80;;;22.90;52.50;;;;;;4969591;28;21026;-76
2023/05/09 08:51:20;;;;;;;10.07;9.13;;;23.60;54.20;;;;;;4969074;28;20478;-76
2023/05/09 08:53:50;;;;;;;11.53;7.77;;;24.60;51.80;;;;;;4965336;28;20513;-76
2023/05/09 08:56:20;;;;;;;7.47;6.50;;;25.60;49.50;;;;;;4963997;28;20803;-77
2023/05/09 08:58:48;;;;;;;6.87;5.93;;;26.30;47.70;;;;;;4969480;28;20454;-78
2023/05/09 09:01:16;;;;;;;6.87;6.10;;;26.90;47.00;;;;;;4972058;28;20441;-78
2023/05/09 09:03:46;;;;;;;10.70;6.37;;;27.30;45.40;;;;;;4969427;28;20429;-77
2023/05/09 09:06:14;;;;;;;6.50;5.90;;;27.60;44.60;;;;;;4974057;28;20401;-77
2023/05/09 09:08:42;;;;;;;6.20;5.77;;;27.80;43.80;;;;;;4969126;28;20443;-76
2023/05/09 09:11:11;;;;;;;5.50;5.10;;;28.10;43.40;;;;;;4964205;28;20527;-77
2023/05/09 09:13:40;;;;;;;5.40;4.97;;;28.20;42.80;;;;;;4967921;28;20471;-77
2023/05/09 09:16:09;;;;;;;8.43;5.60;;;28.40;42.60;;;;;;4967636;28;20425;-77
2023/05/09 09:18:38;;;;;;;5.80;5.10;;;28.50;42.40;;;;;;4971849;28;20536;-77
2023/05/09 09:21:07;;;;;;;5.00;4.70;;;28.70;42.20;;;;;;4968566;28;20469;-77
2023/05/09 09:23:35;;;;;;;6.37;5.87;;;28.80;41.70;;;;;;4972705;28;20481;-77
2023/05/09 09:26:03;;;;;;;6.00;5.60;;;28.90;41.40;;;;;;4961361;28;20447;-77
2023/05/09 09:28:32;;;;;;;5.40;4.87;;;29.00;41.30;;;;;;4967079;28;20425;-77
2023/05/09 09:31:01;;;;;;;6.80;5.30;;;29.10;41.10;;;;;;4974551;28;20478;-77
2023/05/09 09:33:30;;;;;;;4.67;4.47;;;29.20;40.90;;;;;;4969115;28;20537;-77
2023/05/09 09:35:58;;;;;;;9.00;4.90;;;29.40;40.80;;;;;;4974792;28;20454;-77
2023/05/09 09:38:26;;;;;;;5.27;4.97;;;29.40;40.60;;;;;;4966870;28;20451;-78
2023/05/09 09:40:55;;;;;;;5.27;4.97;;;29.50;40.60;;;;;;4974720;28;20409;-77
2023/05/09 09:43:32;;;;;;;5.40;5.10;;;29.50;40.50;;;;;;4972732;28;20453;-77
2023/05/09 09:46:02;;;;;;;5.07;4.77;;;29.60;40.90;;;;;;4968385;28;20412;-77
2023/05/09 09:48:32;;;;;;;5.13;4.73;;;29.70;40.20;;;;;;4974035;28;20972;-77
2023/05/09 09:51:08;;;;;;;5.23;4.83;;;29.80;40.00;;;;;;4974196;28;20540;-77
2023/05/09 09:53:40;;;;;;;4.40;4.20;;;29.90;39.80;;;;;;4974184;28;20465;-77
2023/05/09 09:56:08;;;;;;;5.80;5.30;;;30.10;39.80;;;;;;4974448;28;20425;-77
2023/05/09 09:58:36;;;;;;;4.83;4.53;;;30.10;39.60;;;;;;4964666;28;20453;-77
2023/05/09 10:01:06;;;;;;;5.67;5.13;;;30.20;39.60;;;;;;4974028;28;20411;-77
2023/05/09 10:03:38;;;;;;;5.63;5.13;;;30.30;39.40;;;;;;4965132;28;20466;-77
2023/05/09 10:06:09;;;;;;;5.37;4.87;;;30.30;39.30;;;;;;4973700;28;20456;-77
2023/05/09 10:08:37;;;;;;;5.30;4.80;;;30.40;39.30;;;;;;4973638;28;20420;-77
2023/05/09 10:11:06;;;;;;;5.40;5.07;;;30.40;39.20;;;;;;4973742;28;20480;-78
2023/05/09 10:13:34;;;;;;;5.27;4.77;;;30.50;39.20;;;;;;4970866;28;20470;-77
2023/05/09 10:16:02;;;;;;;5.83;5.10;;;30.50;39.00;;;;;;4973150;28;20549;-77
2023/05/09 10:18:32;;;;;;;5.43;5.13;;;30.60;39.00;;;;;;4973359;28;20448;-77
2023/05/09 10:21:02;;;;;;;5.20;4.90;;;30.60;39.00;;;;;;4973808;28;20417;-77
2023/05/09 10:23:31;;;;;;;5.40;5.00;;;30.60;38.90;;;;;;4970895;28;20441;-76
2023/05/09 10:26:05;;;;;;;5.77;5.20;;;30.60;38.80;;;;;;4975971;28;20418;-77
2023/05/09 10:28:34;;;;;;;5.43;5.13;;;30.50;39.00;;;;;;4962845;28;20424;-77
2023/05/09 10:31:06;;;;;;;5.53;5.13;;;30.30;39.20;;;;;;4972626;28;20856;-77
2023/05/09 10:33:41;;;;;;;5.47;5.07;;;30.40;39.30;;;;;;4974561;28;20470;-77
2023/05/09 10:36:09;;;;;;;4.50;4.30;;;30.40;39.10;;;;;;4965740;28;20452;-78
2023/05/09 10:38:37;;;;;;;5.53;5.03;;;30.40;39.30;;;;;;4971014;28;20545;-77
2023/05/09 10:41:05;;;;;;;11.53;4.70;;;30.40;39.40;;;;;;4970577;28;20445;-77
2023/05/09 10:43:33;;;;;;;4.90;4.60;;;30.50;39.50;;;;;;4972303;28;20462;-76
2023/05/09 10:46:03;;;;;;;5.17;4.77;;;30.60;39.40;;;;;;4972667;28;20438;-76
2023/05/09 10:48:32;;;;;;;5.60;5.20;;;30.60;39.00;;;;;;4969025;28;20451;-76
2023/05/09 10:51:01;;;;;;;5.10;4.80;;;30.60;39.10;;;;;;4970741;28;20477;-76
2023/05/09 10:53:40;;;;;;;5.30;5.00;;;30.50;39.10;;;;;;4970831;28;20472;-76
2023/05/09 10:56:08;;;;;;;5.27;4.97;;;30.40;39.40;;;;;;4968224;28;20448;-75
2023/05/09 10:58:39;;;;;;;5.60;5.20;;;30.50;39.50;;;;;;4970767;28;20427;-76
2023/05/09 11:01:07;;;;;;;5.23;4.93;;;30.70;39.40;;;;;;4971911;28;20442;-76
2023/05/09 11:03:53;;;;;;;5.20;4.90;;;31.00;39.20;;;;;;4972544;28;20466;-75
2023/05/09 11:06:42;;;;;;;5.30;5.00;;;31.10;38.40;;;;;;4959580;28;20454;-75
2023/05/09 11:09:31;;;;;;;5.60;5.20;;;31.00;38.80;;;;;;4969071;28;20910;-75
2023/05/09 11:12:07;;;;;;;5.80;5.40;;;31.00;39.00;;;;;;4969086;28;20485;-74
2023/05/09 11:14:39;;;;;;;5.33;4.93;;;31.20;39.20;;;;;;4968224;28;20454;-75
2023/05/09 11:17:08;;;;;;;6.00;5.53;;;31.60;37.90;;;;;;4972403;28;20451;-75
2023/05/09 11:19:37;;;;;;;5.90;5.30;;;31.50;38.10;;;;;;4966900;28;20426;-75
2023/05/09 11:22:13;;;;;;;5.47;5.07;;;31.30;38.30;;;;;;4966986;28;20474;-75
2023/05/09 11:24:45;;;;;;;5.57;5.10;;;31.10;38.40;;;;;;4969435;28;20450;-76
2023/05/09 11:27:16;;;;;;;5.80;5.40;;;30.80;38.80;;;;;;4971605;28;20431;-76
2023/05/09 11:29:46;;;;;;;6.80;6.33;;;30.60;39.30;;;;;;4961113;28;20451;-75
2023/05/09 11:32:15;;;;;;;7.00;6.40;;;30.30;39.60;;;;;;4961318;28;20570;-76
2023/05/09 11:34:43;;;;;;;6.40;5.90;;;30.20;39.90;;;;;;4972280;28;20523;-76
2023/05/09 11:37:13;;;;;;;6.03;5.63;;;30.10;40.10;;;;;;4971223;28;20435;-75
2023/05/09 11:39:58;;;;;;;6.37;5.93;;;30.00;40.30;;;;;;4966134;28;20450;-75
2023/05/09 11:42:27;;;;;;;7.27;6.20;;;29.90;40.40;;;;;;4968109;28;20493;-75
2023/05/09 11:44:55;;;;;;;9.93;6.90;;;29.80;40.60;;;;;;4972452;28;20425;-76
2023/05/09 11:47:23;;;;;;;12.67;7.43;;;29.70;40.80;;;;;;4972172;28;20421;-75
2023/05/09 11:49:51;;;;;;;13.77;8.57;;;29.70;41.00;;;;;;4971555;28;20424;-75
2023/05/09 11:52:22;;;;;;;15.20;7.47;;;29.70;41.30;;;;;;4969802;28;20474;-75
2023/05/09 11:54:50;;;;;;;18.53;8.10;;;29.70;41.60;;;;;;4969056;28;20420;-76
2023/05/09 11:57:18;;;;;;;15.73;8.10;;;29.70;41.40;;;;;;4968884;28;20405;-75
2023/05/09 11:59:46;;;;;;;10.47;7.90;;;29.70;41.20;;;;;;4965750;28;20457;-76
2023/05/09 12:02:14;;;;;;;15.03;7.00;;;29.60;41.30;;;;;;4964898;28;20443;-75
2023/05/09 12:04:42;;;;;;;9.40;7.40;;;29.60;41.40;;;;;;4969651;28;20970;-75
2023/05/09 12:07:11;;;;;;;10.30;7.40;;;29.50;41.40;;;;;;4972332;28;20516;-76
2023/05/09 12:09:42;;;;;;;11.10;7.10;;;29.50;41.50;;;;;;4972903;28;20429;-76
2023/05/09 12:12:13;;;;;;;7.53;6.80;;;29.40;41.60;;;;;;4974940;28;20471;-76
2023/05/09 12:14:42;;;;;;;8.83;6.40;;;29.40;41.80;;;;;;4969563;28;20452;-76
2023/05/09 12:17:11;;;;;;;10.20;6.90;;;29.40;41.80;;;;;;4974216;28;20442;-75
2023/05/09 12:19:39;;;;;;;7.60;6.80;;;29.40;41.80;;;;;;4975612;28;20420;-76
2023/05/09 12:22:08;;;;;;;7.90;7.10;;;29.40;41.80;;;;;;4974874;28;20436;-76
2023/05/09 12:24:37;;;;;;;8.20;6.53;;;29.30;41.90;;;;;;4976151;28;20480;-76
2023/05/09 12:27:06;;;;;;;10.47;7.17;;;29.20;42.00;;;;;;4974644;28;20442;-75
2023/05/09 12:29:34;;;;;;;8.50;7.30;;;29.20;42.00;;;;;;4967594;28;20484;-75
2023/05/09 12:32:02;;;;;;;8.33;6.80;;;29.20;42.10;;;;;;4975879;28;20508;-75
2023/05/09 12:34:31;;;;;;;7.83;7.13;;;29.10;42.20;;;;;;4971701;28;20793;-74
2023/05/09 12:37:02;;;;;;;8.33;7.10;;;29.10;42.20;;;;;;4974143;28;20440;-75
2023/05/09 12:39:30;;;;;;;7.60;6.70;;;29.10;42.30;;;;;;4975034;28;20408;-75
2023/05/09 12:41:57;;;;;;;7.40;6.70;;;29.00;42.30;;;;;;4974289;28;20465;-76
2023/05/09 12:44:30;;;;;;;8.17;7.30;;;29.00;42.40;;;;;;4975133;28;20479;-75
2023/05/09 12:46:59;;;;;;;7.93;7.23;;;29.10;42.50;;;;;;4974813;28;20425;-76
2023/05/09 12:49:27;;;;;;;7.67;6.90;;;29.10;42.40;;;;;;4971743;28;20433;-76